RJFFRJFM

Guest
Details From RJFF - FUKUOKA
To RJFM - MIYAZAKI
Flight Number -
Tags generated
Created
Modified
Stats Distance 114 nm / 212 km
Max Altitude 13,000 ft / 3,962 m
Waypoints 3
Social Downloads 1
Likes 0
Share

Download

Looking for another format? Having issues loading an existing format? Contact us
Advertisement - Login to hide

Notes

Basic altitude profile: - Ascent Rate: 2500ft/min - Ascent Speed: 250kts - Cruise Altitude: 35000ft - Cruise Speed: 420kts - Descent Rate: 1500ft/min - Descent Speed: 250kts Options: - Use NATs: yes - Use PACOTS: yes - Use low airways: yes - Use high airways: yes

Route

RJFF TUJUN RJFM

ID Type Via Altitude (ft/m) Position (lat/lon) Dist (leg/tot) Name
O RJFF APT - 0 / 0 33.58594 / 130.45069 - / 0 nm FUKUOKA
TUJUN FIX - 13,000 / 3,962 32.86618 / 130.91152 49 / 49 nm
O RJFM APT - 0 / 0 31.87713 / 131.44845 65 / 114 nm MIYAZAKI

Altitude Profile

Advertisement - Login to hide

RJFF

Details ICAO RJFF (FUK)
Name Fukuoka
Region Japan
Timezone Asia/Tokyo (UTC+9.0)
Stats Elevation 30 ft / 9 m (AMSL)
Location 33.585900° 130.451000°
Runways 1
Magnetic Variation 7.784° W

METAR

RJFF 270630Z 26017KT 9999 FEW030 28/05 Q1002 TEMPO 27015G25KT

Decode

TAF

TAF RJFF 270518Z 2706/2812 27015KT 9999 FEW030 TEMPO 2706/2710 27015G25KT BECMG 2714/2716 15004KT BECMG 2800/2803 31008KT BECMG 2809/2812 14003KT

Decode

Departure Runways

ID Width Length Bearing (true/mag) Surface Threshold Overrun Markings Lighting
16 197 ft / 60 m 9,213 ft / 2,808 m 150.35° / 158.13° ASPHALT 0 ft / 0 m 197 ft / 60 m PREC-APP CENTERLINE EDGE THRESHOLD ALSF-I TDZ
34 197 ft / 60 m 9,213 ft / 2,808 m 330.35° / 338.14° ASPHALT 0 ft / 0 m 200 ft / 61 m PREC-APP CENTERLINE EDGE THRESHOLD ALSF-I TDZ

RJFM

Details ICAO RJFM (KMI)
Name MIYAZAKI
Region Japan
Timezone Asia/Tokyo (UTC+9.0)
Stats Elevation 20 ft / 6 m (AMSL)
Location 31.877100° 131.448000°
Runways 1
Magnetic Variation 7.279° W

METAR

RJFM 270600Z 15014KT 9999 FEW030 BKN/// 29/09 Q1002

Decode

TAF

TAF RJFM 270513Z 2706/2812 14012KT 9999 FEW030 BECMG 2708/2710 27013KT TEMPO 2713/2717 27020G30KT BECMG 2800/2803 14012KT BECMG 2806/2809 27007KT

Decode

Destination Runways

ID Width Length Bearing (true/mag) Surface Threshold Overrun Markings Lighting
09 148 ft / 45 m 8,210 ft / 2,502 m 85.16° / 92.44° ASPHALT 0 ft / 0 m 184 ft / 56 m PREC-APP CENTERLINE EDGE THRESHOLD SSALR
27 148 ft / 45 m 8,210 ft / 2,502 m 265.18° / 272.46° ASPHALT 0 ft / 0 m 177 ft / 54 m UK-PREC-APP CENTERLINE EDGE THRESHOLD REIL-OMNI

Approach Navaids

Runway Type Ident Frequency Range Bearing (true/mag) Slope Elevation
27 LOC-ILS IMZ 108.90 MHz 18 nm / 33 km 265.16° / 272.44 ° - 54 ft / 16 m (AMSL)
27 GS IMZ 108.90 MHz 10 nm / 19 km 265.34° / 272.62 ° 3.00° 54 ft / 16 m (AMSL)
27 DME IMZ 108.90 MHz 18 nm / 33 km - - 34 ft / 10 m (AMSL)

Popular Alternatives